Time;durP1;ratioP1;P1;durP2;ratioP2;P2;SDS_P1;SDS_P2;PMS_P1;PMS_P2;Temp;Humidity;BMP_temperature;BMP_pressure;BME280_temperature;BME280_humidity;BME280_pressure;Samples;Min_cycle;Max_cycle;Signal;HPM_P1;HPM_P2
2023/02/02 00:02:11;;;;;;;3.42;3.22;;;4.40;90.30;;;;;;5026538;28;20201;-73
2023/02/02 00:04:39;;;;;;;2.75;2.65;;;4.40;90.20;;;;;;5044836;28;20331;-73
2023/02/02 00:07:06;;;;;;;3.50;3.30;;;4.40;90.20;;;;;;5047874;28;20306;-72
2023/02/02 00:09:33;;;;;;;3.25;3.05;;;4.40;90.40;;;;;;5024714;28;20322;-73
2023/02/02 00:12:01;;;;;;;3.13;2.92;;;4.40;90.40;;;;;;5045034;28;20748;-72
2023/02/02 00:14:28;;;;;;;2.90;2.67;;;4.50;90.30;;;;;;5046200;28;20338;-73
2023/02/02 00:16:57;;;;;;;3.47;3.28;;;4.50;90.10;;;;;;5048281;28;20215;-73
2023/02/02 00:19:28;;;;;;;3.35;3.15;;;4.50;90.00;;;;;;5048735;28;20301;-73
2023/02/02 00:21:56;;;;;;;2.80;2.70;;;4.50;90.20;;;;;;5050511;28;20198;-72
2023/02/02 00:24:24;;;;;;;2.88;2.67;;;4.50;90.10;;;;;;5048232;28;20867;-73
2023/02/02 00:26:52;;;;;;;2.92;2.72;;;4.50;90.10;;;;;;5048458;28;20353;-72
2023/02/02 00:29:21;;;;;;;2.53;2.38;;;4.50;90.10;;;;;;5049913;28;20317;-73
2023/02/02 00:31:48;;;;;;;2.53;2.42;;;4.50;89.50;;;;;;5051025;28;20281;-72
2023/02/02 00:34:16;;;;;;;2.95;2.75;;;4.50;89.50;;;;;;5046603;28;20278;-73
2023/02/02 00:36:45;;;;;;;2.90;2.70;;;4.50;88.70;;;;;;5033371;28;20365;-72
2023/02/02 00:39:17;;;;;;;3.38;3.15;;;4.60;88.60;;;;;;5047620;28;20287;-73
2023/02/02 00:41:44;;;;;;;2.78;2.67;;;4.60;88.70;;;;;;5045308;28;20210;-73
2023/02/02 00:46:55;;;;;;;2.50;2.40;;;4.60;89.10;;;;;;5045541;28;20218;-74
2023/02/02 00:49:23;;;;;;;3.05;2.88;;;4.50;90.00;;;;;;5054986;28;20245;-74
2023/02/02 00:51:51;;;;;;;2.85;2.75;;;4.50;90.00;;;;;;5039534;28;20288;-73
2023/02/02 00:54:18;;;;;;;3.03;2.92;;;4.40;90.00;;;;;;5051264;28;20651;-74
2023/02/02 00:56:45;;;;;;;2.75;2.65;;;4.40;89.90;;;;;;5048941;28;20262;-73
2023/02/02 00:59:12;;;;;;;2.80;2.60;;;4.40;89.90;;;;;;5048903;28;20281;-74
2023/02/02 01:01:39;;;;;;;2.88;2.78;;;4.30;89.50;;;;;;5044899;28;20277;-73
2023/02/02 01:04:07;;;;;;;2.90;2.80;;;4.30;90.20;;;;;;5046912;28;20290;-74
2023/02/02 01:06:34;;;;;;;2.90;2.70;;;4.30;90.40;;;;;;5050979;28;20305;-73
2023/02/02 01:09:02;;;;;;;2.85;2.60;;;4.30;90.20;;;;;;5047381;28;20302;-74
2023/02/02 01:11:30;;;;;;;2.35;2.25;;;4.30;90.30;;;;;;5025979;28;20586;-74
2023/02/02 01:13:58;;;;;;;2.38;2.28;;;4.30;90.70;;;;;;5053248;28;20199;-73
2023/02/02 01:16:25;;;;;;;3.00;2.90;;;4.30;90.50;;;;;;5048068;28;20296;-73
2023/02/02 01:18:52;;;;;;;2.35;2.25;;;4.30;90.50;;;;;;5049831;28;20286;-73
2023/02/02 01:21:19;;;;;;;2.70;2.60;;;4.30;90.70;;;;;;5053226;28;20298;-73
2023/02/02 01:23:46;;;;;;;2.83;2.63;;;4.30;90.40;;;;;;5051073;28;20285;-73
2023/02/02 01:26:16;;;;;;;2.78;2.58;;;4.30;90.20;;;;;;5045863;28;20293;-74
2023/02/02 01:28:44;;;;;;;2.88;2.67;;;4.30;90.10;;;;;;5052694;28;20309;-71
2023/02/02 01:31:14;;;;;;;2.70;2.50;;;4.30;90.70;;;;;;5046601;28;20739;-72
2023/02/02 01:33:41;;;;;;;2.80;2.60;;;4.30;90.70;;;;;;5044887;28;20690;-72
2023/02/02 01:36:11;;;;;;;2.67;2.58;;;4.20;90.50;;;;;;5045016;28;20273;-72
2023/02/02 01:38:39;;;;;;;2.70;2.60;;;4.20;90.40;;;;;;5029899;28;20301;-73
2023/02/02 01:41:06;;;;;;;3.10;2.90;;;4.20;90.10;;;;;;5031775;28;21015;-73
2023/02/02 01:43:53;;;;;;;2.67;2.47;;;4.10;90.00;;;;;;5050755;28;20301;-73
2023/02/02 01:46:23;;;;;;;2.58;2.47;;;4.10;90.50;;;;;;5045646;28;20234;-73
2023/02/02 01:48:53;;;;;;;2.90;2.70;;;4.10;90.50;;;;;;5032298;28;20214;-73
2023/02/02 01:51:23;;;;;;;2.80;2.70;;;4.00;90.60;;;;;;5043239;28;20311;-73
2023/02/02 01:53:54;;;;;;;2.97;2.78;;;4.00;90.40;;;;;;5048348;28;20234;-72
2023/02/02 01:56:28;;;;;;;2.60;2.50;;;4.00;90.50;;;;;;5053129;28;20257;-72
2023/02/02 01:58:58;;;;;;;3.10;2.90;;;4.00;90.30;;;;;;5031758;28;20189;-72
2023/02/02 02:01:26;;;;;;;2.80;2.58;;;4.00;90.00;;;;;;5046130;28;20317;-73
2023/02/02 02:03:53;;;;;;;2.92;2.72;;;4.00;90.00;;;;;;5047865;28;20257;-73
2023/02/02 02:06:21;;;;;;;2.50;2.33;;;4.00;90.10;;;;;;5025442;28;20218;-73
2023/02/02 02:08:53;;;;;;;2.97;2.88;;;4.00;90.40;;;;;;5029386;28;20572;-73
2023/02/02 02:11:21;;;;;;;2.78;2.67;;;4.00;90.40;;;;;;5047454;28;20238;-73
2023/02/02 02:16:53;;;;;;;2.63;2.53;;;3.90;90.80;;;;;;5031582;28;20267;-73
2023/02/02 02:29:08;;;;;;;2.67;2.58;;;3.80;90.80;;;;;;5042217;28;20230;-71
2023/02/02 02:32:05;;;;;;;2.60;2.50;;;3.80;90.60;;;;;;5047558;28;20218;-73
2023/02/02 02:34:45;;;;;;;2.83;2.72;;;3.80;90.70;;;;;;5032002;28;20223;-72
2023/02/02 02:37:19;;;;;;;2.67;2.58;;;3.80;90.60;;;;;;5048025;28;20258;-73
2023/02/02 02:39:58;;;;;;;2.80;2.65;;;3.90;90.80;;;;;;5044934;28;20244;-73
2023/02/02 02:42:30;;;;;;;2.70;2.60;;;3.90;90.70;;;;;;5031258;28;20274;-73
2023/02/02 02:45:00;;;;;;;2.88;2.78;;;3.90;90.80;;;;;;5046223;28;20599;-73
2023/02/02 02:47:30;;;;;;;2.70;2.60;;;3.90;90.30;;;;;;5046497;28;20305;-72
2023/02/02 02:49:59;;;;;;;2.42;2.33;;;3.90;90.10;;;;;;5043446;28;20878;-72
2023/02/02 02:52:26;;;;;;;2.45;2.35;;;4.00;90.20;;;;;;5049125;28;20273;-73
2023/02/02 02:54:55;;;;;;;2.70;2.60;;;4.00;90.80;;;;;;5045041;28;20653;-72
2023/02/02 02:57:41;;;;;;;2.38;2.28;;;4.00;90.80;;;;;;5040537;28;20306;-72
2023/02/02 03:00:22;;;;;;;2.92;2.83;;;3.90;90.80;;;;;;5046642;28;20309;-72
2023/02/02 03:02:54;;;;;;;2.85;2.65;;;3.90;90.80;;;;;;5050605;28;20643;-72
2023/02/02 03:05:32;;;;;;;2.70;2.50;;;3.90;90.50;;;;;;5047669;28;20301;-72
2023/02/02 03:08:09;;;;;;;2.60;2.50;;;3.90;90.30;;;;;;5047020;28;20806;-72
2023/02/02 03:10:40;;;;;;;2.70;2.60;;;3.90;90.20;;;;;;5045969;28;20306;-72
2023/02/02 03:13:09;;;;;;;2.30;2.20;;;3.90;90.30;;;;;;5045043;28;20294;-73
2023/02/02 03:15:36;;;;;;;2.50;2.40;;;3.80;90.80;;;;;;5054399;28;20310;-72
2023/02/02 03:18:04;;;;;;;2.90;2.72;;;3.80;90.80;;;;;;5045551;28;20377;-72
2023/02/02 03:20:32;;;;;;;2.35;2.25;;;3.70;90.90;;;;;;5043535;28;20313;-73
2023/02/02 03:23:00;;;;;;;2.67;2.58;;;3.70;90.50;;;;;;5045963;28;20281;-73
2023/02/02 03:25:27;;;;;;;3.10;2.90;;;3.80;91.00;;;;;;5039770;28;20298;-72
2023/02/02 03:27:55;;;;;;;2.60;2.50;;;3.70;91.00;;;;;;5026695;28;20249;-72
2023/02/02 03:30:23;;;;;;;2.67;2.58;;;3.60;91.20;;;;;;5029336;28;20306;-72
2023/02/02 03:32:52;;;;;;;2.90;2.80;;;3.60;91.30;;;;;;5044723;28;20286;-71
2023/02/02 03:35:19;;;;;;;2.70;2.60;;;3.60;91.20;;;;;;5046038;28;20293;-73
2023/02/02 03:37:48;;;;;;;2.78;2.67;;;3.60;91.00;;;;;;5045234;28;20719;-71
2023/02/02 03:40:15;;;;;;;2.70;2.60;;;3.60;91.20;;;;;;5040117;28;20257;-73
2023/02/02 03:42:42;;;;;;;2.80;2.70;;;3.60;91.30;;;;;;5046257;28;20282;-72
2023/02/02 03:45:11;;;;;;;2.28;2.17;;;3.60;91.40;;;;;;5042856;28;20250;-72
2023/02/02 03:47:38;;;;;;;2.17;2.08;;;3.50;91.60;;;;;;5044132;28;20309;-73
2023/02/02 03:50:05;;;;;;;3.10;2.90;;;3.40;91.50;;;;;;5040968;28;20305;-72
2023/02/02 03:52:32;;;;;;;2.67;2.58;;;3.40;91.60;;;;;;5042604;28;20340;-72
2023/02/02 03:55:01;;;;;;;2.85;2.75;;;3.40;91.50;;;;;;5051556;28;20775;-73
2023/02/02 03:57:28;;;;;;;3.45;2.83;;;3.40;91.60;;;;;;5039453;28;20305;-72
2023/02/02 03:59:55;;;;;;;3.00;2.88;;;3.50;91.30;;;;;;5043247;28;20715;-72
2023/02/02 04:02:22;;;;;;;2.83;2.72;;;3.40;91.40;;;;;;5053754;28;20286;-72
2023/02/02 04:04:49;;;;;;;2.75;2.65;;;3.40;91.90;;;;;;5053398;28;20301;-72
2023/02/02 04:07:16;;;;;;;2.80;2.70;;;3.40;91.60;;;;;;5029614;28;20633;-72
2023/02/02 04:09:43;;;;;;;3.20;3.00;;;3.40;91.90;;;;;;5022869;28;20231;-73
2023/02/02 04:12:12;;;;;;;2.40;2.30;;;3.40;91.90;;;;;;5052616;28;20627;-73
2023/02/02 04:14:38;;;;;;;2.92;2.80;;;3.40;91.60;;;;;;5053801;28;20946;-72
2023/02/02 04:17:06;;;;;;;2.85;2.75;;;3.40;91.30;;;;;;5052849;28;20306;-73
2023/02/02 04:19:33;;;;;;;2.53;2.42;;;3.50;91.20;;;;;;5044019;28;21009;-73
2023/02/02 04:22:00;;;;;;;3.10;2.90;;;3.40;91.40;;;;;;5053655;28;20299;-72
2023/02/02 04:24:27;;;;;;;3.35;3.15;;;3.30;91.90;;;;;;5052526;28;20621;-73
2023/02/02 04:26:54;;;;;;;3.17;2.97;;;3.30;92.70;;;;;;5046163;28;20306;-71
2023/02/02 04:29:22;;;;;;;3.38;3.13;;;3.20;92.20;;;;;;5050870;28;20306;-72
2023/02/02 04:31:49;;;;;;;2.95;2.70;;;3.20;91.90;;;;;;5049738;28;20284;-73
2023/02/02 04:34:17;;;;;;;2.85;2.67;;;3.20;92.00;;;;;;5049228;28;20274;-73
2023/02/02 04:36:44;;;;;;;3.20;3.00;;;3.20;92.40;;;;;;5032706;28;20307;-72
2023/02/02 04:39:11;;;;;;;3.00;2.80;;;3.10;92.30;;;;;;5052724;28;20290;-72
2023/02/02 04:41:38;;;;;;;3.13;2.92;;;3.10;92.30;;;;;;5051548;28;20282;-72
2023/02/02 04:44:09;;;;;;;2.63;2.42;;;3.10;92.00;;;;;;5052196;28;20290;-72
2023/02/02 04:46:37;;;;;;;3.33;3.05;;;3.10;92.10;;;;;;5052641;28;20301;-72
2023/02/02 04:49:04;;;;;;;2.58;2.47;;;3.10;92.90;;;;;;5059378;28;20289;-72
2023/02/02 04:51:32;;;;;;;3.08;2.97;;;3.10;92.60;;;;;;5048299;28;20302;-72
2023/02/02 04:53:58;;;;;;;3.53;3.33;;;3.20;92.40;;;;;;5054628;28;20285;-70
2023/02/02 04:56:27;;;;;;;3.08;2.88;;;3.30;91.90;;;;;;5053560;28;20310;-72
2023/02/02 04:58:55;;;;;;;3.60;3.40;;;3.20;92.30;;;;;;5034762;28;20203;-73
2023/02/02 05:01:23;;;;;;;3.65;3.45;;;3.10;92.50;;;;;;5044942;28;20226;-73
2023/02/02 05:03:52;;;;;;;3.38;3.17;;;3.10;92.70;;;;;;5051723;28;20306;-72
2023/02/02 05:06:19;;;;;;;3.30;3.10;;;3.10;92.00;;;;;;5054425;28;20302;-72
2023/02/02 05:08:47;;;;;;;2.95;2.75;;;3.30;92.00;;;;;;5033808;28;20207;-72
2023/02/02 05:11:17;;;;;;;3.22;3.03;;;3.30;92.20;;;;;;5050018;28;20976;-72
2023/02/02 05:13:47;;;;;;;3.08;2.88;;;3.20;92.30;;;;;;5050677;28;20729;-73
2023/02/02 05:16:14;;;;;;;3.60;3.40;;;3.10;92.10;;;;;;5048283;28;20227;-72
2023/02/02 05:18:41;;;;;;;3.50;3.30;;;3.10;92.50;;;;;;5052429;28;20281;-73
2023/02/02 05:21:10;;;;;;;3.17;2.97;;;3.00;92.50;;;;;;5045098;28;20297;-71
2023/02/02 05:23:37;;;;;;;3.70;3.50;;;2.90;92.60;;;;;;5054708;28;20281;-72
2023/02/02 05:26:05;;;;;;;3.40;3.20;;;2.90;92.60;;;;;;5052728;28;20333;-71
2023/02/02 05:28:34;;;;;;;3.50;3.30;;;2.90;92.90;;;;;;5034010;28;20286;-72
2023/02/02 05:31:05;;;;;;;3.10;2.90;;;2.90;92.50;;;;;;5050012;28;20223;-73
2023/02/02 05:33:32;;;;;;;3.35;3.22;;;2.90;92.50;;;;;;5023319;28;20752;-73
2023/02/02 05:35:59;;;;;;;3.20;3.00;;;2.90;92.80;;;;;;5048700;28;20214;-72
2023/02/02 05:38:28;;;;;;;3.78;3.53;;;2.90;93.00;;;;;;5046847;28;20302;-73
2023/02/02 05:40:56;;;;;;;3.03;2.92;;;2.80;92.80;;;;;;5047879;28;20294;-73
2023/02/02 05:43:25;;;;;;;2.95;2.85;;;2.80;92.70;;;;;;5032634;28;20199;-73
2023/02/02 05:45:52;;;;;;;3.13;2.92;;;2.70;92.80;;;;;;5049591;28;20319;-73
2023/02/02 05:48:19;;;;;;;2.70;2.60;;;2.70;93.00;;;;;;5051435;28;20304;-73
2023/02/02 05:50:50;;;;;;;3.17;2.97;;;2.70;93.30;;;;;;5044617;28;20311;-73
2023/02/02 05:53:17;;;;;;;3.33;3.20;;;2.70;93.80;;;;;;5053446;28;20305;-73
2023/02/02 05:55:45;;;;;;;3.30;3.10;;;2.60;93.60;;;;;;5055111;28;20347;-72
2023/02/02 05:58:12;;;;;;;3.33;3.13;;;2.60;93.40;;;;;;5050109;28;20314;-73
2023/02/02 06:00:39;;;;;;;3.50;3.30;;;2.70;93.60;;;;;;5044801;28;20304;-73
2023/02/02 06:03:06;;;;;;;3.47;3.28;;;2.70;93.40;;;;;;5049702;28;20329;-74
2023/02/02 06:05:33;;;;;;;3.03;2.92;;;2.70;93.40;;;;;;5053751;28;20296;-73
2023/02/02 06:08:00;;;;;;;3.38;3.17;;;2.80;93.10;;;;;;5052560;28;20299;-71
2023/02/02 06:10:27;;;;;;;3.10;2.90;;;2.80;93.00;;;;;;5052851;28;20303;-74
2023/02/02 06:12:56;;;;;;;3.08;2.97;;;2.80;93.20;;;;;;5034603;28;20561;-73
2023/02/02 06:15:23;;;;;;;2.80;2.70;;;2.80;93.60;;;;;;5055009;28;20772;-72
2023/02/02 06:17:50;;;;;;;2.70;2.60;;;2.70;93.80;;;;;;5033932;28;20306;-73
2023/02/02 06:20:17;;;;;;;3.00;2.80;;;2.70;93.50;;;;;;5033722;28;20306;-74
2023/02/02 06:22:44;;;;;;;3.13;2.90;;;2.70;93.50;;;;;;5036079;28;20205;-74
2023/02/02 06:25:11;;;;;;;3.25;3.05;;;2.60;93.60;;;;;;5051175;28;20306;-72
2023/02/02 06:27:38;;;;;;;3.20;3.00;;;2.60;93.60;;;;;;5030721;28;20314;-72
2023/02/02 06:30:09;;;;;;;2.88;2.78;;;2.70;93.50;;;;;;5050489;28;20312;-72
2023/02/02 06:32:36;;;;;;;2.65;2.55;;;2.70;93.60;;;;;;5055640;28;20285;-73
2023/02/02 06:35:03;;;;;;;3.40;3.20;;;2.70;93.60;;;;;;5048339;28;20332;-74
2023/02/02 06:37:32;;;;;;;3.17;2.97;;;2.80;93.80;;;;;;5054473;28;20246;-73
2023/02/02 06:40:00;;;;;;;3.40;3.20;;;2.80;94.00;;;;;;5049362;28;20296;-73
2023/02/02 06:42:27;;;;;;;3.20;3.00;;;2.80;93.90;;;;;;5034942;28;20279;-73
2023/02/02 06:44:54;;;;;;;3.05;2.85;;;2.80;93.90;;;;;;5047040;28;20299;-72
2023/02/02 06:47:22;;;;;;;3.10;2.90;;;2.90;93.90;;;;;;5051931;28;20340;-73
2023/02/02 06:49:49;;;;;;;3.08;2.88;;;3.00;93.40;;;;;;5054806;28;20277;-73
2023/02/02 06:52:16;;;;;;;2.88;2.78;;;3.10;93.30;;;;;;5051779;28;20289;-73
2023/02/02 06:54:43;;;;;;;3.03;2.92;;;3.10;93.30;;;;;;5049826;28;20686;-71
2023/02/02 06:57:10;;;;;;;3.00;2.80;;;3.00;93.50;;;;;;5050854;28;20300;-73
2023/02/02 06:59:39;;;;;;;3.03;2.92;;;3.00;93.60;;;;;;5049976;28;20309;-73
2023/02/02 07:02:09;;;;;;;3.38;3.17;;;2.90;93.50;;;;;;5032523;28;20209;-73
2023/02/02 07:04:37;;;;;;;3.22;3.03;;;2.90;93.70;;;;;;5035408;28;20210;-72
2023/02/02 07:07:04;;;;;;;3.60;3.40;;;2.90;93.60;;;;;;5055901;28;20312;-72
2023/02/02 07:09:32;;;;;;;3.30;3.10;;;2.90;93.90;;;;;;5029340;28;20234;-72
2023/02/02 07:12:00;;;;;;;3.33;3.13;;;2.90;94.00;;;;;;5034889;28;20214;-73
2023/02/02 07:14:27;;;;;;;3.50;3.30;;;2.90;94.40;;;;;;5046810;28;20298;-71
2023/02/02 07:16:54;;;;;;;3.30;3.10;;;2.90;94.10;;;;;;5051368;28;20302;-72
2023/02/02 07:19:21;;;;;;;3.50;3.22;;;3.00;94.00;;;;;;5036057;28;20194;-72
2023/02/02 07:21:49;;;;;;;3.17;2.97;;;3.00;93.80;;;;;;5052066;28;20218;-72
2023/02/02 07:24:17;;;;;;;3.60;3.40;;;3.10;93.80;;;;;;5047303;28;20268;-73
2023/02/02 07:26:44;;;;;;;3.35;3.17;;;3.10;93.60;;;;;;5055341;28;20309;-73
2023/02/02 07:29:13;;;;;;;3.33;3.13;;;3.10;93.80;;;;;;5046928;28;20286;-73
2023/02/02 07:31:40;;;;;;;3.05;2.85;;;3.10;94.70;;;;;;5050974;28;20229;-72
2023/02/02 07:34:07;;;;;;;3.00;2.90;;;3.20;94.70;;;;;;5049316;28;20286;-72
2023/02/02 07:36:34;;;;;;;3.47;3.22;;;3.20;94.00;;;;;;5051878;28;20226;-73
2023/02/02 07:39:04;;;;;;;3.50;3.25;;;3.20;94.10;;;;;;5039703;28;20661;-72
2023/02/02 07:41:32;;;;;;;3.35;3.22;;;3.20;93.90;;;;;;5035614;28;20297;-72
2023/02/02 07:43:59;;;;;;;2.90;2.80;;;3.20;93.70;;;;;;5045241;28;20293;-73
2023/02/02 07:46:26;;;;;;;3.08;2.97;;;3.20;93.80;;;;;;5032465;28;20269;-72
2023/02/02 07:48:55;;;;;;;3.22;3.03;;;3.20;93.90;;;;;;5036760;28;20198;-72
2023/02/02 07:51:23;;;;;;;3.40;3.20;;;3.60;93.90;;;;;;5043133;28;20587;-72
2023/02/02 07:53:51;;;;;;;3.53;3.25;;;4.50;93.70;;;;;;5053284;28;20291;-73
2023/02/02 07:56:22;;;;;;;3.42;3.22;;;5.70;92.70;;;;;;5049462;28;20327;-73
2023/02/02 07:58:51;;;;;;;3.13;2.92;;;6.80;91.60;;;;;;5056400;28;20285;-72
2023/02/02 08:01:21;;;;;;;3.20;3.00;;;7.90;90.80;;;;;;5050831;28;20294;-72
2023/02/02 08:03:48;;;;;;;3.42;3.13;;;8.80;88.90;;;;;;5050457;28;20309;-72
2023/02/02 08:06:20;;;;;;;2.97;2.83;;;9.50;86.80;;;;;;5047399;28;20314;-71
2023/02/02 08:08:48;;;;;;;2.78;2.58;;;9.70;83.30;;;;;;5028586;28;20707;-72
2023/02/02 08:11:17;;;;;;;3.03;2.83;;;9.70;83.80;;;;;;5048227;28;20314;-71
2023/02/02 08:13:49;;;;;;;2.60;2.50;;;9.70;82.80;;;;;;5047608;28;20324;-72
2023/02/02 08:16:17;;;;;;;2.60;2.50;;;10.10;83.50;;;;;;5028178;28;20240;-73
2023/02/02 08:18:44;;;;;;;2.40;2.30;;;10.50;82.90;;;;;;5048438;28;20301;-73
2023/02/02 08:21:11;;;;;;;2.55;2.45;;;10.90;80.90;;;;;;5046244;28;20297;-73
2023/02/02 08:23:40;;;;;;;3.33;3.13;;;10.90;79.30;;;;;;5050661;28;20274;-73
2023/02/02 08:26:09;;;;;;;4.18;3.78;;;10.70;79.90;;;;;;5050889;28;20309;-74
2023/02/02 08:28:37;;;;;;;3.03;2.83;;;10.90;81.90;;;;;;5025375;28;20191;-73
2023/02/02 08:31:07;;;;;;;3.17;2.83;;;11.10;81.80;;;;;;5052100;28;20227;-74
2023/02/02 08:33:34;;;;;;;4.45;4.05;;;11.50;81.50;;;;;;5051466;28;20660;-74
2023/02/02 08:36:02;;;;;;;4.63;3.70;;;12.10;82.00;;;;;;5053081;28;20322;-73
2023/02/02 08:38:29;;;;;;;3.55;3.22;;;12.70;80.60;;;;;;5049216;28;20305;-73
2023/02/02 08:40:56;;;;;;;3.78;3.47;;;13.10;79.90;;;;;;5050075;28;20650;-73
2023/02/02 08:43:23;;;;;;;3.63;3.33;;;13.50;78.60;;;;;;5053180;28;20260;-74
2023/02/02 08:45:51;;;;;;;4.43;4.03;;;13.40;76.50;;;;;;5030386;28;20253;-73
2023/02/02 08:48:20;;;;;;;5.60;5.03;;;13.40;77.70;;;;;;5050878;28;20229;-73
2023/02/02 08:50:53;;;;;;;4.75;4.30;;;13.10;78.70;;;;;;5046259;28;20880;-73
2023/02/02 08:53:20;;;;;;;4.75;4.35;;;13.20;79.00;;;;;;5049412;28;20656;-73
2023/02/02 08:55:48;;;;;;;3.35;3.05;;;13.40;77.80;;;;;;5054214;28;20305;-74
2023/02/02 08:58:15;;;;;;;4.00;3.60;;;13.80;78.00;;;;;;5051014;28;20297;-74
2023/02/02 09:00:42;;;;;;;3.42;3.22;;;13.90;76.00;;;;;;5047610;28;20294;-73
2023/02/02 09:03:09;;;;;;;4.07;3.63;;;13.70;75.70;;;;;;5045592;28;20287;-74
2023/02/02 09:05:38;;;;;;;3.40;3.20;;;13.60;76.60;;;;;;5050475;28;20255;-74
2023/02/02 09:08:05;;;;;;;4.75;2.92;;;13.90;77.00;;;;;;5047943;28;20210;-73
2023/02/02 09:10:35;;;;;;;3.80;3.13;;;14.40;76.90;;;;;;5052420;28;20237;-74
2023/02/02 09:13:03;;;;;;;3.10;2.80;;;14.50;75.50;;;;;;5033305;28;20229;-73
2023/02/02 09:15:30;;;;;;;3.28;2.97;;;14.70;74.90;;;;;;5031911;28;20322;-73
2023/02/02 09:17:57;;;;;;;2.60;2.40;;;14.70;74.30;;;;;;5030297;28;20223;-73
2023/02/02 09:20:24;;;;;;;2.50;2.30;;;14.60;73.70;;;;;;5045957;28;20310;-74
2023/02/02 09:22:55;;;;;;;2.88;2.60;;;14.30;72.70;;;;;;5048873;28;20606;-76
2023/02/02 09:25:23;;;;;;;3.67;2.47;;;14.00;73.60;;;;;;5039926;28;20310;-76
2023/02/02 09:27:50;;;;;;;3.22;2.63;;;14.00;75.80;;;;;;5041722;28;20257;-74
2023/02/02 09:30:18;;;;;;;4.18;2.78;;;14.00;73.90;;;;;;5053014;28;20302;-76
2023/02/02 09:32:45;;;;;;;4.28;3.85;;;13.80;75.40;;;;;;5042009;28;20304;-75
2023/02/02 09:35:12;;;;;;;7.45;3.45;;;14.00;77.60;;;;;;5044474;28;20230;-73
2023/02/02 09:37:39;;;;;;;3.15;2.85;;;15.20;74.30;;;;;;5050147;28;20246;-75
2023/02/02 09:40:16;;;;;;;2.08;1.98;;;16.70;68.30;;;;;;5042695;28;20315;-73
2023/02/02 09:42:54;;;;;;;2.50;2.30;;;18.20;63.60;;;;;;5039842;28;20199;-71
2023/02/02 09:45:29;;;;;;;2.20;2.00;;;19.40;60.50;;;;;;5009203;28;20783;-75
2023/02/02 09:48:01;;;;;;;2.30;2.10;;;19.90;58.70;;;;;;5045866;28;20904;-74
2023/02/02 09:50:41;;;;;;;2.38;1.90;;;19.60;58.90;;;;;;5023936;28;20214;-73
2023/02/02 09:53:21;;;;;;;1.70;1.60;;;19.10;59.20;;;;;;5046016;28;20298;-75
2023/02/02 09:55:52;;;;;;;1.73;1.63;;;18.80;60.60;;;;;;5044692;28;20313;-75
2023/02/02 09:58:22;;;;;;;1.70;1.60;;;18.10;60.90;;;;;;5024805;28;20621;-75
2023/02/02 10:00:56;;;;;;;1.42;1.33;;;17.30;60.00;;;;;;5026303;28;20230;-77
2023/02/02 10:03:31;;;;;;;1.75;1.60;;;16.60;61.80;;;;;;5041673;28;20289;-77
2023/02/02 10:06:03;;;;;;;1.67;1.58;;;16.70;66.00;;;;;;5043679;28;20313;-75
2023/02/02 10:08:36;;;;;;;1.38;1.27;;;17.00;64.90;;;;;;5042603;28;20278;-76
2023/02/02 10:11:18;;;;;;;1.55;1.45;;;17.20;62.80;;;;;;5028446;28;20365;-77
2023/02/02 10:13:47;;;;;;;2.38;1.88;;;17.20;63.60;;;;;;5022860;28;20199;-75
2023/02/02 10:16:17;;;;;;;1.80;1.70;;;17.10;63.00;;;;;;5027607;28;20254;-75
2023/02/02 10:18:50;;;;;;;2.00;1.80;;;16.90;63.70;;;;;;5044484;28;20293;-76
2023/02/02 10:21:26;;;;;;;1.95;1.85;;;17.00;65.10;;;;;;5040026;28;20326;-77
2023/02/02 10:23:54;;;;;;;2.33;2.13;;;17.10;64.50;;;;;;5043041;28;21784;-75
2023/02/02 10:26:25;;;;;;;2.55;2.03;;;17.00;65.20;;;;;;5046706;28;20600;-74
2023/02/02 10:29:03;;;;;;;1.88;1.50;;;16.90;65.30;;;;;;5046070;28;20286;-73
2023/02/02 10:31:41;;;;;;;2.10;1.88;;;16.90;64.70;;;;;;5027901;28;20714;-75
2023/02/02 10:34:18;;;;;;;2.88;2.20;;;16.50;64.50;;;;;;5045030;28;20227;-76
2023/02/02 10:36:56;;;;;;;1.77;1.67;;;16.30;67.00;;;;;;5047910;28;20310;-76
2023/02/02 10:39:34;;;;;;;1.70;1.60;;;16.60;65.30;;;;;;5041157;28;20195;-76
2023/02/02 10:42:14;;;;;;;1.80;1.70;;;16.90;63.60;;;;;;5030631;28;20858;-74
2023/02/02 10:44:48;;;;;;;3.25;2.03;;;17.20;63.40;;;;;;5040835;28;20219;-74
2023/02/02 10:47:22;;;;;;;2.13;2.03;;;17.10;65.20;;;;;;5041345;28;20314;-74
2023/02/02 10:49:57;;;;;;;3.38;2.40;;;16.80;66.70;;;;;;5045286;28;20222;-75
2023/02/02 10:52:31;;;;;;;2.00;1.90;;;16.70;66.20;;;;;;5026062;28;20298;-75
2023/02/02 10:55:02;;;;;;;1.05;1.05;;;16.50;63.90;;;;;;5026782;28;20229;-76
2023/02/02 10:57:57;;;;;;;1.42;1.20;;;16.20;64.00;;;;;;5041303;28;20226;-74
2023/02/02 11:00:30;;;;;;;1.52;1.40;;;16.20;63.70;;;;;;5045357;28;20239;-76
2023/02/02 11:02:57;;;;;;;1.05;1.05;;;16.30;64.90;;;;;;5042237;28;20191;-75
2023/02/02 11:08:14;;;;;;;1.42;1.33;;;17.00;63.90;;;;;;5041509;28;20230;-74
2023/02/02 11:10:43;;;;;;;1.52;1.42;;;16.90;63.80;;;;;;5046480;28;20310;-75
2023/02/02 11:13:16;;;;;;;1.55;1.45;;;16.90;63.80;;;;;;5047586;28;20301;-76
2023/02/02 11:15:43;;;;;;;1.50;1.40;;;17.10;64.10;;;;;;5045279;28;20309;-75
2023/02/02 11:18:16;;;;;;;2.50;1.80;;;17.30;63.70;;;;;;5051584;28;20321;-76
2023/02/02 11:20:45;;;;;;;3.00;1.70;;;17.40;63.80;;;;;;5032498;28;20579;-76
2023/02/02 11:23:19;;;;;;;1.73;1.63;;;17.50;64.00;;;;;;5050092;28;20191;-76
2023/02/02 11:25:46;;;;;;;3.38;1.55;;;17.90;64.50;;;;;;5044538;28;20233;-76
2023/02/02 11:28:29;;;;;;;2.13;1.85;;;18.20;62.90;;;;;;5043569;28;20227;-77
2023/02/02 11:30:57;;;;;;;1.60;1.50;;;18.00;61.30;;;;;;5053843;28;20218;-76
2023/02/02 11:33:31;;;;;;;1.75;1.65;;;18.10;63.00;;;;;;5053180;28;20314;-78
2023/02/02 11:36:00;;;;;;;2.78;1.40;;;18.10;62.20;;;;;;5033907;28;20237;-77
2023/02/02 11:38:28;;;;;;;1.83;1.40;;;17.90;61.10;;;;;;5052435;28;20219;-75
2023/02/02 11:41:02;;;;;;;1.48;1.40;;;17.60;62.00;;;;;;5034933;28;20253;-77
2023/02/02 11:43:33;;;;;;;1.63;1.52;;;17.20;62.30;;;;;;5056439;28;20195;-77
2023/02/02 11:46:03;;;;;;;1.40;1.30;;;17.10;63.30;;;;;;5049242;28;20249;-75
2023/02/02 11:48:34;;;;;;;1.85;1.75;;;17.10;63.90;;;;;;5032588;28;20187;-76
2023/02/02 11:51:03;;;;;;;1.73;1.63;;;17.20;63.20;;;;;;5050442;28;20222;-79
2023/02/02 11:53:32;;;;;;;1.50;1.40;;;17.00;62.60;;;;;;5049579;28;20250;-78
2023/02/02 11:56:04;;;;;;;1.60;1.50;;;17.00;63.90;;;;;;5049236;28;20287;-78
2023/02/02 11:58:44;;;;;;;1.30;1.20;;;16.90;64.50;;;;;;5034666;28;20256;-76
2023/02/02 12:01:23;;;;;;;1.65;1.55;;;16.90;65.10;;;;;;5045489;28;20298;-73
2023/02/02 12:03:54;;;;;;;3.05;1.50;;;17.10;64.00;;;;;;5042074;28;20207;-76
2023/02/02 12:06:23;;;;;;;1.73;1.35;;;17.10;62.90;;;;;;5035626;28;20780;-77
2023/02/02 12:08:53;;;;;;;4.28;1.50;;;16.80;64.10;;;;;;5044414;28;20206;-77
2023/02/02 12:11:36;;;;;;;2.63;1.70;;;16.70;63.80;;;;;;5037514;28;20258;-76
2023/02/02 12:14:19;;;;;;;1.65;1.55;;;16.70;64.60;;;;;;5054598;28;20310;-76
2023/02/02 12:16:55;;;;;;;2.72;1.77;;;16.80;64.50;;;;;;5051655;28;20250;-74
2023/02/02 12:19:52;;;;;;;1.60;1.50;;;16.70;64.50;;;;;;5049547;28;20260;-75
2023/02/02 12:22:37;;;;;;;1.60;1.50;;;16.70;63.40;;;;;;5044614;28;20225;-76
2023/02/02 12:25:27;;;;;;;2.45;1.80;;;16.40;65.20;;;;;;5021907;28;20643;-76
2023/02/02 12:28:00;;;;;;;1.73;1.63;;;16.20;64.70;;;;;;5041010;28;20246;-75
2023/02/02 12:30:41;;;;;;;1.67;1.58;;;16.30;65.10;;;;;;5045532;28;20238;-76
2023/02/02 12:33:23;;;;;;;1.45;1.35;;;16.30;64.90;;;;;;5040152;28;20280;-75
2023/02/02 12:36:07;;;;;;;1.90;1.60;;;16.40;65.40;;;;;;5049728;28;20680;-75
2023/02/02 12:38:56;;;;;;;1.80;1.70;;;16.50;65.20;;;;;;5053919;28;20712;-75
2023/02/02 12:41:45;;;;;;;4.30;1.52;;;16.30;65.40;;;;;;5034045;28;20631;-75
2023/02/02 12:44:20;;;;;;;1.63;1.50;;;16.30;65.50;;;;;;5049647;28;20333;-76
2023/02/02 12:47:00;;;;;;;1.60;1.50;;;16.50;65.70;;;;;;5046954;28;20321;-75
2023/02/02 12:49:41;;;;;;;1.67;1.50;;;16.50;65.90;;;;;;5048747;28;20851;-75
2023/02/02 12:52:26;;;;;;;1.65;1.55;;;16.50;66.00;;;;;;5055196;28;20242;-75
2023/02/02 12:55:10;;;;;;;1.80;1.40;;;16.60;66.00;;;;;;5033755;28;20219;-76
2023/02/02 12:57:49;;;;;;;1.50;1.40;;;16.60;66.50;;;;;;5051724;28;20300;-76
2023/02/02 13:00:33;;;;;;;1.98;1.55;;;16.80;66.60;;;;;;5050610;28;20721;-75
2023/02/02 13:03:18;;;;;;;2.00;1.85;;;16.70;65.40;;;;;;5034157;28;20188;-75
2023/02/02 13:05:56;;;;;;;1.30;1.30;;;16.30;66.50;;;;;;5053816;28;20776;-76
2023/02/02 13:08:28;;;;;;;1.55;1.45;;;16.30;67.00;;;;;;5035077;28;20273;-73
2023/02/02 13:11:01;;;;;;;1.60;1.50;;;16.60;66.80;;;;;;5054459;28;20297;-76
2023/02/02 13:13:32;;;;;;;2.42;1.30;;;16.90;67.20;;;;;;5052469;28;20790;-75
2023/02/02 13:16:06;;;;;;;1.70;1.45;;;16.80;66.00;;;;;;5046834;28;20879;-75
2023/02/02 13:18:38;;;;;;;1.98;1.85;;;16.60;65.00;;;;;;5036328;28;20313;-76
2023/02/02 13:21:14;;;;;;;2.15;1.65;;;16.30;66.10;;;;;;5049847;28;20254;-75
2023/02/02 13:23:44;;;;;;;4.63;1.42;;;16.10;66.80;;;;;;5053769;28;20190;-75
2023/02/02 13:26:16;;;;;;;2.30;1.67;;;15.90;66.90;;;;;;5047254;28;20277;-75
2023/02/02 13:28:49;;;;;;;1.70;1.60;;;16.00;67.40;;;;;;5053427;28;21049;-74